Time;durP1;ratioP1;P1;durP2;ratioP2;P2;SDS_P1;SDS_P2;PMS_P1;PMS_P2;Temp;Humidity;BMP_temperature;BMP_pressure;BME280_temperature;BME280_humidity;BME280_pressure;Samples;Min_cycle;Max_cycle;Signal;HPM_P1;HPM_P2
2022/04/14 00:01:46;;;;;;;10.37;6.90;;;11.00;99.90;;;;;;5065735;28;20189;-90
2022/04/14 00:04:12;;;;;;;14.87;9.00;;;10.90;99.90;;;;;;5048028;28;20281;-89
2022/04/14 00:06:38;;;;;;;13.40;8.90;;;10.90;99.90;;;;;;5064403;28;20238;-89
2022/04/14 00:09:04;;;;;;;18.10;8.47;;;10.80;99.90;;;;;;5066071;28;20209;-88
2022/04/14 00:11:30;;;;;;;10.10;7.80;;;10.80;99.90;;;;;;5063722;28;20759;-88
2022/04/14 00:13:55;;;;;;;13.63;9.13;;;10.80;99.90;;;;;;5064226;28;20203;-90
2022/04/14 00:16:21;;;;;;;17.00;10.40;;;10.80;99.90;;;;;;5066033;28;20712;-88
2022/04/14 00:18:47;;;;;;;15.83;8.67;;;10.80;99.90;;;;;;5047119;28;20685;-88
2022/04/14 00:21:13;;;;;;;17.33;9.33;;;10.80;99.90;;;;;;5047706;28;20228;-88
2022/04/14 00:23:39;;;;;;;10.17;7.63;;;10.80;99.90;;;;;;5047314;28;20249;-88
2022/04/14 00:26:05;;;;;;;13.23;7.40;;;10.70;99.90;;;;;;5066042;28;20251;-88
2022/04/14 00:28:31;;;;;;;18.53;9.77;;;10.70;99.90;;;;;;5046963;28;20282;-87
2022/04/14 00:30:59;;;;;;;13.40;8.83;;;10.60;99.90;;;;;;5047518;28;20220;-87
2022/04/14 00:33:26;;;;;;;12.33;8.83;;;10.60;99.90;;;;;;5063331;28;20303;-89
2022/04/14 00:35:52;;;;;;;15.67;9.30;;;10.60;99.90;;;;;;5046771;28;20213;-88
2022/04/14 00:38:18;;;;;;;12.23;8.90;;;10.50;99.90;;;;;;5047413;28;20185;-89
2022/04/14 00:40:44;;;;;;;19.47;10.90;;;10.50;99.90;;;;;;5080570;28;20585;-88
2022/04/14 00:43:10;;;;;;;10.37;8.17;;;10.50;99.90;;;;;;5064465;28;20696;-87
2022/04/14 00:45:35;;;;;;;21.57;12.53;;;10.50;99.90;;;;;;5065749;28;20221;-88
2022/04/14 00:48:01;;;;;;;18.63;9.73;;;10.50;99.90;;;;;;5069132;28;20708;-88
2022/04/14 00:50:27;;;;;;;17.43;8.97;;;10.50;99.90;;;;;;5068555;28;20189;-87
2022/04/14 00:52:54;;;;;;;12.40;8.27;;;10.40;99.90;;;;;;5052205;28;20215;-89
2022/04/14 00:55:19;;;;;;;16.43;8.70;;;10.30;99.90;;;;;;5051525;28;20304;-87
2022/04/14 00:57:45;;;;;;;14.83;8.90;;;10.30;99.90;;;;;;5069309;28;20755;-88
2022/04/14 01:00:12;;;;;;;12.63;9.40;;;10.30;99.90;;;;;;5069508;28;20342;-89
2022/04/14 01:02:38;;;;;;;17.47;9.50;;;10.30;99.90;;;;;;5069062;28;20709;-87
2022/04/14 01:05:04;;;;;;;15.83;9.73;;;10.30;99.90;;;;;;5051285;28;20227;-89
2022/04/14 01:07:32;;;;;;;15.67;10.73;;;10.30;99.90;;;;;;5067390;28;20212;-88
2022/04/14 01:09:58;;;;;;;18.27;9.80;;;10.30;99.90;;;;;;5051029;28;20227;-88
2022/04/14 01:12:24;;;;;;;12.57;8.33;;;10.30;99.90;;;;;;5084404;28;20236;-88
2022/04/14 01:14:50;;;;;;;17.67;10.37;;;10.20;99.90;;;;;;5050641;28;20212;-87
2022/04/14 01:17:16;;;;;;;19.70;8.63;;;10.20;99.90;;;;;;5034386;28;20199;-88
2022/04/14 01:19:42;;;;;;;22.67;10.10;;;10.20;99.90;;;;;;5051630;28;20626;-89
2022/04/14 01:22:08;;;;;;;16.23;9.53;;;10.20;99.90;;;;;;5085057;28;20221;-87
2022/04/14 01:24:35;;;;;;;14.53;8.57;;;10.20;99.90;;;;;;5050410;28;20229;-88
2022/04/14 01:27:01;;;;;;;24.97;10.03;;;10.10;99.90;;;;;;5067752;28;20228;-89
2022/04/14 01:29:28;;;;;;;13.03;8.40;;;10.10;99.90;;;;;;5050534;28;20202;-88
2022/04/14 01:31:56;;;;;;;12.40;8.23;;;10.10;99.90;;;;;;5082960;28;20204;-89
2022/04/14 01:34:22;;;;;;;21.83;10.07;;;10.00;99.90;;;;;;5049153;28;20623;-90
2022/04/14 01:36:48;;;;;;;14.50;7.77;;;10.00;99.90;;;;;;5050574;28;20751;-87
2022/04/14 01:39:14;;;;;;;17.30;10.37;;;10.00;99.90;;;;;;5041870;28;20734;-88
2022/04/14 01:41:42;;;;;;;20.07;11.03;;;9.90;99.90;;;;;;5067927;28;20217;-88
2022/04/14 01:44:08;;;;;;;17.97;9.93;;;9.90;99.90;;;;;;5069105;28;20225;-87
2022/04/14 01:46:35;;;;;;;34.93;12.47;;;9.90;99.90;;;;;;5083653;28;20232;-87
2022/04/14 01:49:01;;;;;;;15.47;10.00;;;9.90;99.90;;;;;;5082989;28;20241;-88
2022/04/14 01:51:27;;;;;;;17.43;10.63;;;9.90;99.90;;;;;;5082333;28;20217;-88
2022/04/14 01:53:53;;;;;;;15.97;8.97;;;9.90;99.90;;;;;;5067199;28;20580;-88
2022/04/14 01:56:19;;;;;;;16.97;10.07;;;9.90;99.90;;;;;;5067652;28;20204;-89
2022/04/14 01:58:45;;;;;;;19.77;10.07;;;9.90;99.90;;;;;;5067233;28;20189;-88
2022/04/14 02:01:11;;;;;;;18.60;10.50;;;9.80;99.90;;;;;;5067461;28;21083;-87
2022/04/14 02:03:37;;;;;;;20.70;9.50;;;9.80;99.90;;;;;;5066451;28;20229;-86
2022/04/14 02:06:03;;;;;;;20.03;11.03;;;9.80;99.90;;;;;;5066658;28;21072;-87
2022/04/14 02:08:29;;;;;;;20.00;9.83;;;9.80;99.90;;;;;;5049657;28;20189;-90
2022/04/14 02:10:55;;;;;;;18.57;10.50;;;9.70;99.90;;;;;;5067175;28;20193;-87
2022/04/14 02:13:21;;;;;;;20.07;9.37;;;9.70;99.90;;;;;;5067228;28;20236;-87
2022/04/14 02:15:46;;;;;;;20.03;11.50;;;9.60;99.90;;;;;;5067862;28;20216;-87
2022/04/14 02:18:12;;;;;;;15.03;8.90;;;9.60;99.90;;;;;;5033657;28;20291;-88
2022/04/14 02:20:38;;;;;;;23.33;9.33;;;9.60;99.90;;;;;;5083566;28;20666;-89
2022/04/14 02:23:04;;;;;;;12.77;9.30;;;9.60;99.90;;;;;;5050771;28;20216;-87
2022/04/14 02:25:29;;;;;;;21.53;11.13;;;9.50;99.90;;;;;;5049671;28;20225;-87
2022/04/14 02:27:55;;;;;;;13.03;9.33;;;9.50;99.90;;;;;;5047550;28;20254;-87
2022/04/14 02:30:21;;;;;;;19.33;10.47;;;9.40;99.90;;;;;;5049193;28;20286;-87
2022/04/14 02:32:47;;;;;;;13.70;8.57;;;9.50;99.90;;;;;;5083000;28;20231;-90
2022/04/14 02:35:14;;;;;;;15.50;8.97;;;9.50;99.90;;;;;;5068221;28;20560;-86
2022/04/14 02:37:39;;;;;;;20.47;12.37;;;9.40;99.90;;;;;;5066259;28;20193;-89
2022/04/14 02:40:06;;;;;;;15.73;10.17;;;9.50;99.90;;;;;;5083189;28;20217;-87
2022/04/14 02:42:32;;;;;;;13.77;9.27;;;9.40;99.90;;;;;;5066097;28;20243;-90
2022/04/14 02:44:57;;;;;;;13.40;10.37;;;9.40;99.90;;;;;;5048094;28;20221;-90
2022/04/14 02:47:23;;;;;;;14.63;9.23;;;9.40;99.90;;;;;;5046650;28;20213;-89
2022/04/14 02:49:49;;;;;;;10.83;7.33;;;9.40;99.90;;;;;;5065816;28;20788;-88
2022/04/14 02:52:14;;;;;;;15.50;10.57;;;9.40;99.90;;;;;;5067461;28;20225;-89
2022/04/14 02:54:40;;;;;;;19.97;10.13;;;9.40;99.90;;;;;;5065380;28;20221;-88
2022/04/14 02:57:09;;;;;;;18.13;9.57;;;9.40;99.90;;;;;;5065040;28;21026;-88
2022/04/14 02:59:39;;;;;;;17.13;10.37;;;9.40;99.90;;;;;;5064555;28;20308;-90
2022/04/14 03:02:04;;;;;;;21.20;10.23;;;9.40;99.90;;;;;;5081369;28;21008;-89
2022/04/14 03:04:30;;;;;;;15.73;9.73;;;9.30;99.90;;;;;;5032500;28;20223;-88
2022/04/14 03:06:57;;;;;;;14.80;9.17;;;9.30;99.90;;;;;;5047875;28;20228;-88
2022/04/14 03:09:23;;;;;;;16.30;9.97;;;9.20;99.90;;;;;;5047855;28;20221;-88
2022/04/14 03:11:49;;;;;;;27.07;10.67;;;9.20;99.90;;;;;;5065837;28;20237;-88
2022/04/14 03:14:15;;;;;;;15.00;8.20;;;9.20;99.90;;;;;;5066304;28;20204;-90
2022/04/14 03:16:41;;;;;;;19.73;9.77;;;9.20;99.90;;;;;;5083468;28;20193;-89
2022/04/14 03:19:07;;;;;;;9.63;8.43;;;9.10;99.90;;;;;;5048669;28;20228;-89
2022/04/14 03:21:33;;;;;;;13.37;8.33;;;9.10;99.90;;;;;;5082901;28;20235;-89
2022/04/14 03:23:59;;;;;;;19.87;11.20;;;9.10;99.90;;;;;;5075831;28;20522;-87
2022/04/14 03:26:24;;;;;;;17.67;9.00;;;9.10;99.90;;;;;;5064732;28;20721;-90
2022/04/14 03:28:50;;;;;;;27.37;9.03;;;9.00;99.90;;;;;;5048910;28;20194;-87
2022/04/14 03:31:16;;;;;;;25.20;9.20;;;9.00;99.90;;;;;;5057424;28;20560;-87
2022/04/14 03:33:41;;;;;;;12.13;9.87;;;9.00;99.90;;;;;;5048333;28;20225;-89
2022/04/14 03:36:07;;;;;;;22.10;10.27;;;8.90;99.90;;;;;;5082225;28;20213;-88
2022/04/14 03:38:33;;;;;;;14.33;8.90;;;8.90;99.90;;;;;;5047980;28;20232;-89
2022/04/14 03:41:06;;;;;;;20.37;11.07;;;8.80;99.90;;;;;;5049171;28;20190;-88
2022/04/14 03:43:35;;;;;;;16.33;9.47;;;8.80;99.90;;;;;;5066239;28;20259;-89
2022/04/14 03:46:03;;;;;;;12.43;8.70;;;8.80;99.90;;;;;;5064993;28;20642;-90
2022/04/14 03:48:29;;;;;;;20.07;10.10;;;8.80;99.90;;;;;;5082005;28;20210;-88
2022/04/14 03:50:55;;;;;;;17.63;11.03;;;8.70;99.90;;;;;;5066311;28;20214;-89
2022/04/14 03:53:21;;;;;;;14.00;9.57;;;8.70;99.90;;;;;;5031545;28;20201;-89
2022/04/14 03:55:47;;;;;;;13.23;9.60;;;8.70;99.90;;;;;;5067104;28;20658;-89
2022/04/14 03:58:17;;;;;;;13.43;8.57;;;8.70;99.90;;;;;;5066131;28;20280;-88
2022/04/14 04:00:43;;;;;;;14.77;9.80;;;8.60;99.90;;;;;;5054388;28;20225;-88
2022/04/14 04:03:10;;;;;;;14.27;8.43;;;8.60;99.90;;;;;;5048121;28;20239;-88
2022/04/14 04:05:37;;;;;;;13.50;7.73;;;8.60;99.90;;;;;;5047817;28;20213;-88
2022/04/14 04:08:04;;;;;;;14.63;10.40;;;8.60;99.90;;;;;;5031871;28;20182;-88
2022/04/14 04:10:30;;;;;;;17.57;10.07;;;8.60;99.90;;;;;;5039550;28;20213;-87
2022/04/14 04:12:56;;;;;;;18.20;10.73;;;8.70;99.90;;;;;;5063387;28;20717;-86
2022/04/14 04:15:22;;;;;;;11.23;6.90;;;8.70;99.90;;;;;;5063176;28;20612;-87
2022/04/14 04:17:51;;;;;;;11.63;7.93;;;8.70;99.90;;;;;;5066089;28;20209;-88
2022/04/14 04:20:17;;;;;;;13.63;8.27;;;8.70;99.90;;;;;;5065396;28;20213;-88
2022/04/14 04:22:43;;;;;;;12.87;9.47;;;8.60;99.90;;;;;;5063698;28;20216;-88
2022/04/14 04:25:09;;;;;;;11.27;7.83;;;8.60;99.90;;;;;;5064796;28;20229;-88
2022/04/14 04:27:36;;;;;;;17.77;11.83;;;8.60;99.90;;;;;;5047857;28;20213;-87
2022/04/14 04:30:07;;;;;;;13.57;8.63;;;8.50;99.90;;;;;;5038884;28;20222;-88
2022/04/14 04:32:33;;;;;;;17.73;10.53;;;8.50;99.90;;;;;;5046884;28;20215;-87
2022/04/14 04:35:06;;;;;;;13.57;8.57;;;8.50;99.90;;;;;;5080561;28;20177;-88
2022/04/14 04:37:32;;;;;;;18.97;10.37;;;8.50;99.90;;;;;;5046521;28;20217;-87
2022/04/14 04:39:58;;;;;;;18.67;8.73;;;8.60;99.90;;;;;;5063772;28;20247;-88
2022/04/14 04:42:24;;;;;;;19.80;11.27;;;8.60;99.90;;;;;;5064219;28;20224;-88
2022/04/14 04:44:50;;;;;;;14.30;8.80;;;8.60;99.90;;;;;;5061849;28;20213;-87
2022/04/14 04:47:16;;;;;;;14.27;7.33;;;8.50;99.90;;;;;;5080589;28;20189;-88
2022/04/14 04:49:42;;;;;;;12.20;10.03;;;8.60;99.90;;;;;;5063921;28;20638;-87
2022/04/14 04:52:08;;;;;;;18.20;9.73;;;8.60;99.90;;;;;;5063366;28;20571;-87
2022/04/14 04:54:34;;;;;;;9.60;7.50;;;8.60;99.90;;;;;;5063592;28;20221;-88
2022/04/14 04:57:00;;;;;;;16.83;8.70;;;8.50;99.90;;;;;;5061948;28;20216;-88
2022/04/14 04:59:26;;;;;;;10.33;7.53;;;8.50;99.90;;;;;;5046183;28;20960;-89
2022/04/14 05:01:52;;;;;;;14.17;8.67;;;8.50;99.90;;;;;;5046748;28;20193;-87
2022/04/14 05:04:17;;;;;;;11.37;6.40;;;8.50;99.90;;;;;;5079112;28;20229;-87
2022/04/14 05:06:43;;;;;;;12.47;8.67;;;8.60;99.90;;;;;;5064401;28;20225;-87
2022/04/14 05:09:09;;;;;;;19.00;8.53;;;8.70;99.90;;;;;;5064118;28;20225;-88
2022/04/14 05:11:35;;;;;;;15.13;8.73;;;8.70;99.90;;;;;;5045668;28;20277;-88
2022/04/14 05:14:02;;;;;;;12.37;8.17;;;8.80;99.90;;;;;;5080538;28;20225;-88
2022/04/14 05:16:28;;;;;;;8.33;7.23;;;9.00;99.90;;;;;;5045793;28;20342;-87
2022/04/14 05:18:54;;;;;;;16.23;9.33;;;9.00;99.90;;;;;;5079102;28;21127;-90
2022/04/14 05:21:19;;;;;;;11.93;6.87;;;9.10;99.90;;;;;;5078883;28;20307;-87
2022/04/14 05:23:45;;;;;;;16.10;9.17;;;9.20;99.90;;;;;;5061455;28;20260;-89
2022/04/14 05:26:11;;;;;;;19.40;10.50;;;9.50;99.90;;;;;;5062440;28;20194;-86
2022/04/14 05:28:36;;;;;;;22.47;12.07;;;9.90;99.90;;;;;;5038533;28;20776;-86
2022/04/14 05:31:02;;;;;;;13.97;9.93;;;10.10;99.90;;;;;;5028484;28;21458;-89
2022/04/14 05:33:28;;;;;;;19.33;10.57;;;10.10;99.90;;;;;;5047632;28;20229;-88
2022/04/14 05:35:54;;;;;;;14.80;8.67;;;10.50;99.90;;;;;;5067116;28;20229;-87
2022/04/14 05:38:20;;;;;;;18.73;10.27;;;10.90;99.90;;;;;;5083056;28;20657;-87
2022/04/14 05:40:46;;;;;;;13.87;10.20;;;11.50;99.90;;;;;;5050053;28;20544;-88
2022/04/14 05:43:18;;;;;;;14.93;10.27;;;12.00;99.90;;;;;;5068031;28;20271;-88
2022/04/14 05:45:48;;;;;;;21.73;12.17;;;12.20;99.90;;;;;;5049409;28;20229;-87
2022/04/14 05:48:15;;;;;;;20.57;11.23;;;12.70;99.90;;;;;;5068078;28;20719;-87
2022/04/14 05:50:45;;;;;;;19.87;12.17;;;13.30;99.90;;;;;;5067412;28;20796;-90
2022/04/14 05:53:11;;;;;;;19.77;10.97;;;13.70;99.90;;;;;;5050344;28;20193;-86
2022/04/14 05:55:38;;;;;;;23.53;12.43;;;14.90;99.90;;;;;;5065496;28;20304;-87
2022/04/14 05:58:05;;;;;;;23.47;12.90;;;15.60;99.90;;;;;;5048940;28;20222;-88
2022/04/14 06:00:32;;;;;;;21.70;11.47;;;17.00;99.90;;;;;;5067164;28;20217;-88
2022/04/14 06:02:59;;;;;;;16.83;9.00;;;17.50;99.90;;;;;;5066362;28;20225;-87
2022/04/14 06:05:29;;;;;;;12.97;10.03;;;17.90;99.90;;;;;;5082083;28;20212;-87
2022/04/14 06:07:56;;;;;;;15.47;9.27;;;18.90;99.90;;;;;;5066094;28;20276;-87
2022/04/14 06:10:23;;;;;;;18.40;9.00;;;19.00;99.90;;;;;;5065497;28;20328;-87
2022/04/14 06:12:49;;;;;;;17.23;9.87;;;19.90;99.90;;;;;;5065386;28;20240;-88
2022/04/14 06:15:15;;;;;;;15.50;8.87;;;20.50;99.90;;;;;;5082116;28;20221;-88
2022/04/14 06:17:42;;;;;;;13.87;8.80;;;21.50;99.90;;;;;;5067100;28;20240;-87
2022/04/14 06:20:09;;;;;;;9.47;6.80;;;21.40;99.90;;;;;;5049269;28;20699;-86
2022/04/14 06:22:39;;;;;;;14.23;8.60;;;22.00;99.90;;;;;;5048799;28;20221;-88
2022/04/14 06:25:12;;;;;;;12.50;8.33;;;22.80;99.90;;;;;;5066464;28;20225;-87
2022/04/14 06:27:48;;;;;;;10.10;6.37;;;23.30;99.90;;;;;;5080884;28;20298;-86
2022/04/14 06:30:15;;;;;;;9.90;7.60;;;24.10;99.90;;;;;;5048289;28;20223;-86
2022/04/14 06:32:41;;;;;;;12.87;6.80;;;22.90;99.90;;;;;;5065489;28;20730;-87
2022/04/14 06:35:12;;;;;;;14.43;7.33;;;23.00;99.90;;;;;;5067518;28;20194;-86
2022/04/14 06:37:38;;;;;;;14.20;8.70;;;22.60;99.90;;;;;;5066277;28;20201;-86
2022/04/14 06:40:04;;;;;;;10.63;6.87;;;22.40;99.90;;;;;;5065304;28;20212;-88
2022/04/14 06:42:30;;;;;;;8.47;6.80;;;21.70;99.90;;;;;;5081530;28;20236;-86
2022/04/14 06:44:59;;;;;;;11.47;6.87;;;21.10;99.90;;;;;;5064281;28;20704;-86
2022/04/14 06:47:28;;;;;;;14.37;7.40;;;21.40;99.90;;;;;;5073690;28;20197;-87
2022/04/14 06:49:54;;;;;;;12.17;6.60;;;22.20;99.90;;;;;;5066202;28;21143;-88
2022/04/14 06:52:21;;;;;;;15.10;8.07;;;23.30;99.90;;;;;;5081175;28;20259;-87
2022/04/14 06:54:48;;;;;;;16.93;8.57;;;23.30;99.90;;;;;;5065550;28;20229;-87
2022/04/14 06:57:14;;;;;;;12.97;7.10;;;23.40;99.90;;;;;;5080174;28;20270;-85
2022/04/14 06:59:40;;;;;;;13.27;7.33;;;23.70;99.90;;;;;;5064026;28;20251;-86
2022/04/14 07:02:06;;;;;;;10.90;6.03;;;24.30;99.90;;;;;;5047827;28;20220;-87
2022/04/14 07:04:32;;;;;;;9.77;6.33;;;25.30;99.90;;;;;;5064124;28;20252;-87
2022/04/14 07:06:59;;;;;;;9.67;5.70;;;25.30;99.90;;;;;;5047715;28;20220;-89
2022/04/14 07:09:24;;;;;;;10.47;6.33;;;25.90;99.90;;;;;;5047392;28;20217;-87
2022/04/14 07:11:50;;;;;;;6.83;4.37;;;25.50;99.90;;;;;;5065683;28;20275;-87
2022/04/14 07:14:18;;;;;;;12.27;6.38;;;24.90;99.90;;;;;;5064531;28;20196;-87
2022/04/14 07:16:44;;;;;;;9.75;5.68;;;25.80;99.90;;;;;;5048026;28;20239;-87
2022/04/14 07:19:10;;;;;;;14.45;6.78;;;27.20;99.90;;;;;;5081020;28;20984;-87
2022/04/14 07:21:36;;;;;;;9.52;5.22;;;27.50;99.90;;;;;;5064289;28;20296;-86
2022/04/14 07:24:01;;;;;;;12.00;6.38;;;26.50;99.90;;;;;;5064576;28;20237;-87
2022/04/14 07:26:27;;;;;;;8.32;5.68;;;25.80;99.90;;;;;;5063836;28;20583;-87
2022/04/14 07:28:53;;;;;;;11.32;6.32;;;24.40;99.90;;;;;;5080807;28;20173;-87
2022/04/14 07:31:18;;;;;;;10.82;6.50;;;22.30;99.90;;;;;;5064002;28;20319;-86
2022/04/14 07:33:44;;;;;;;11.25;6.03;;;23.60;99.90;;;;;;5064804;28;20209;-88
2022/04/14 07:36:11;;;;;;;10.40;5.93;;;24.70;99.90;;;;;;5036716;28;21050;-87
2022/04/14 07:38:36;;;;;;;10.05;6.45;;;25.80;99.90;;;;;;5046948;28;20283;-86
2022/04/14 07:41:05;;;;;;;10.38;6.65;;;26.30;99.90;;;;;;5063818;28;20193;-86
2022/04/14 07:43:34;;;;;;;9.95;6.13;;;26.30;99.90;;;;;;5046986;28;20253;-87
2022/04/14 07:46:01;;;;;;;11.73;5.45;;;26.40;99.90;;;;;;5063278;28;20274;-88
2022/04/14 07:48:27;;;;;;;11.20;5.97;;;26.80;99.90;;;;;;5045144;28;20217;-87
2022/04/14 07:50:52;;;;;;;8.88;5.53;;;25.60;99.90;;;;;;5061592;28;20224;-86
2022/04/14 07:53:18;;;;;;;9.55;6.00;;;25.90;99.90;;;;;;5044410;28;20192;-87
2022/04/14 07:55:44;;;;;;;10.38;6.45;;;26.30;99.90;;;;;;5078590;28;20188;-86
2022/04/14 07:58:10;;;;;;;11.98;7.18;;;27.40;99.90;;;;;;5061461;28;21247;-87
2022/04/14 08:00:38;;;;;;;10.77;5.95;;;27.50;99.90;;;;;;5078399;28;20213;-87
2022/04/14 08:03:05;;;;;;;10.80;6.50;;;28.50;99.90;;;;;;5043963;28;21106;-87
2022/04/14 08:05:41;;;;;;;7.15;4.95;;;27.10;99.90;;;;;;5062533;28;20182;-87
2022/04/14 08:08:12;;;;;;;9.00;5.05;;;26.50;99.90;;;;;;5063150;28;21111;-86
2022/04/14 08:10:40;;;;;;;11.82;5.97;;;26.90;99.90;;;;;;5044902;28;20220;-87
2022/04/14 08:13:06;;;;;;;8.85;5.25;;;27.10;99.90;;;;;;5044354;28;20254;-87
2022/04/14 08:15:33;;;;;;;8.98;6.03;;;27.80;99.90;;;;;;5062522;28;20599;-87
2022/04/14 08:17:59;;;;;;;12.52;6.93;;;28.10;99.90;;;;;;5078198;28;20213;-86
2022/04/14 08:20:26;;;;;;;12.25;6.65;;;26.40;99.90;;;;;;5077853;28;20234;-86
2022/04/14 08:22:54;;;;;;;10.68;6.45;;;27.20;99.90;;;;;;5078169;28;20208;-86
2022/04/14 08:25:26;;;;;;;10.77;6.55;;;28.10;99.90;;;;;;5044031;28;20504;-87
2022/04/14 08:27:53;;;;;;;9.77;6.43;;;27.80;99.90;;;;;;5078333;28;20221;-86
2022/04/14 08:30:21;;;;;;;8.82;6.00;;;27.20;99.90;;;;;;5077619;28;20274;-88
2022/04/14 08:32:47;;;;;;;9.75;6.55;;;27.80;99.90;;;;;;5079503;28;20286;-89
2022/04/14 08:35:14;;;;;;;8.07;5.72;;;27.80;99.90;;;;;;5078857;28;20717;-87
2022/04/14 08:37:41;;;;;;;10.73;5.40;;;27.70;99.90;;;;;;5063118;28;20267;-89
2022/04/14 08:40:09;;;;;;;10.80;6.13;;;28.30;99.90;;;;;;5061510;28;20249;-89
2022/04/14 08:42:40;;;;;;;10.20;6.10;;;27.70;99.90;;;;;;5062273;28;20672;-87
2022/04/14 08:45:13;;;;;;;10.80;7.13;;;27.60;99.90;;;;;;5063583;28;21133;-87
2022/04/14 08:47:40;;;;;;;12.05;6.65;;;25.60;99.90;;;;;;5045615;28;20221;-86
2022/04/14 08:50:09;;;;;;;10.35;6.70;;;23.80;99.90;;;;;;5062839;28;20205;-87
2022/04/14 08:52:36;;;;;;;11.27;5.75;;;24.40;99.90;;;;;;5046059;28;20699;-87
2022/04/14 08:55:04;;;;;;;9.43;6.68;;;24.60;99.90;;;;;;5045446;28;20235;-85
2022/04/14 08:57:31;;;;;;;10.27;6.07;;;24.50;99.90;;;;;;5079137;28;20215;-89
2022/04/14 08:59:59;;;;;;;9.40;6.43;;;24.00;99.90;;;;;;5061900;28;20232;-88
2022/04/14 09:02:27;;;;;;;10.00;6.90;;;23.90;99.90;;;;;;5063469;28;20169;-86
2022/04/14 09:04:53;;;;;;;9.20;5.93;;;25.50;99.90;;;;;;5046232;28;20205;-89
2022/04/14 09:07:19;;;;;;;12.57;5.82;;;26.10;99.90;;;;;;5063687;28;20721;-87
2022/04/14 09:09:45;;;;;;;9.80;6.45;;;26.10;99.90;;;;;;5049547;28;20248;-90
2022/04/14 09:12:12;;;;;;;7.85;5.25;;;26.30;99.90;;;;;;5082672;28;20704;-86
2022/04/14 09:14:38;;;;;;;11.48;6.10;;;25.10;99.90;;;;;;5065233;28;20551;-86
2022/04/14 09:17:05;;;;;;;7.05;4.22;;;25.10;99.90;;;;;;5067970;28;20189;-88
2022/04/14 09:19:32;;;;;;;8.30;5.78;;;23.00;99.90;;;;;;5082785;28;20225;-86
2022/04/14 09:21:59;;;;;;;9.93;5.10;;;21.70;99.90;;;;;;5066011;28;20641;-87
2022/04/14 09:24:47;;;;;;;7.50;5.40;;;20.80;99.90;;;;;;5067586;28;20256;-91
2022/04/14 09:27:31;;;;;;;8.23;5.20;;;20.70;99.90;;;;;;5043044;28;20689;-90
2022/04/14 09:30:05;;;;;;;7.65;3.97;;;20.50;99.90;;;;;;5067635;28;20213;-90
2022/04/14 09:32:36;;;;;;;8.80;4.10;;;20.30;99.90;;;;;;5050174;28;20170;-89
2022/04/14 09:35:15;;;;;;;5.63;3.40;;;20.60;99.90;;;;;;5067844;28;20221;-89
2022/04/14 09:37:41;;;;;;;6.68;4.32;;;20.00;99.90;;;;;;5066161;28;20591;-90
2022/04/14 09:40:08;;;;;;;6.10;4.40;;;19.80;99.90;;;;;;5048944;28;20225;-89
2022/04/14 09:42:42;;;;;;;8.07;4.07;;;20.10;99.90;;;;;;5049032;28;20213;-89
2022/04/14 09:45:21;;;;;;;7.17;3.63;;;20.10;99.90;;;;;;5048712;28;20235;-90
2022/04/14 09:47:48;;;;;;;7.57;4.53;;;19.70;99.90;;;;;;5050625;28;20224;-90
2022/04/14 09:50:40;;;;;;;7.40;5.17;;;19.60;99.90;;;;;;5049481;28;20185;-91
2022/04/14 09:53:30;;;;;;;7.03;4.43;;;19.50;99.90;;;;;;5067667;28;20200;-88
2022/04/14 09:55:57;;;;;;;3.70;3.27;;;19.30;99.90;;;;;;5067153;28;20564;-90
2022/04/14 09:58:26;;;;;;;7.20;4.60;;;19.10;99.90;;;;;;5066511;28;20221;-85
2022/04/14 10:00:54;;;;;;;8.97;4.93;;;19.00;99.90;;;;;;5048021;28;20296;-87
2022/04/14 10:03:20;;;;;;;9.63;4.70;;;18.90;99.90;;;;;;5048136;28;20251;-86
2022/04/14 10:05:48;;;;;;;6.13;3.93;;;19.50;99.90;;;;;;5066588;28;20422;-85
2022/04/14 10:08:15;;;;;;;7.83;4.63;;;19.30;99.90;;;;;;5066347;28;20193;-85
2022/04/14 10:10:43;;;;;;;8.67;3.87;;;19.50;99.90;;;;;;5066199;28;20204;-85
2022/04/14 10:13:10;;;;;;;5.10;3.93;;;19.40;99.90;;;;;;5066216;28;20236;-87
2022/04/14 10:15:44;;;;;;;6.03;3.97;;;19.10;99.90;;;;;;5056031;28;20233;-88
2022/04/14 10:18:12;;;;;;;5.37;3.00;;;19.30;99.90;;;;;;5064892;28;20233;-86
2022/04/14 10:20:39;;;;;;;8.00;4.37;;;19.00;99.90;;;;;;5066606;28;20220;-87
2022/04/14 10:23:07;;;;;;;7.30;3.50;;;19.40;99.90;;;;;;5065899;28;20217;-86
2022/04/14 10:25:36;;;;;;;7.07;3.03;;;19.60;99.90;;;;;;5058084;28;20256;-86
2022/04/14 10:28:03;;;;;;;7.37;3.60;;;20.10;99.90;;;;;;5081849;28;20697;-86
2022/04/14 10:30:29;;;;;;;5.33;3.57;;;20.20;99.90;;;;;;5064597;28;20312;-86
2022/04/14 10:32:56;;;;;;;7.70;3.23;;;20.90;99.90;;;;;;5064009;28;20376;-90
2022/04/14 10:35:24;;;;;;;4.67;3.30;;;22.00;99.90;;;;;;5066663;28;20201;-86
2022/04/14 10:38:14;;;;;;;5.47;3.30;;;21.80;99.90;;;;;;5056364;28;20177;-85
2022/04/14 10:40:46;;;;;;;4.43;3.70;;;20.50;99.90;;;;;;5067390;28;20256;-86
2022/04/14 10:43:14;;;;;;;6.40;3.17;;;19.80;99.90;;;;;;5065661;28;20294;-86
2022/04/14 10:46:06;;;;;;;6.00;2.57;;;19.20;99.90;;;;;;5064449;28;20217;-85
2022/04/14 10:48:39;;;;;;;6.57;3.83;;;18.40;99.90;;;;;;5047294;28;20227;-86
2022/04/14 10:51:32;;;;;;;6.23;3.43;;;18.10;99.90;;;;;;5042024;28;20213;-86
2022/04/14 10:54:05;;;;;;;4.57;2.70;;;18.20;99.90;;;;;;5064280;28;20233;-87
2022/04/14 10:56:34;;;;;;;3.93;2.67;;;18.00;99.90;;;;;;5047415;28;20529;-86
2022/04/14 10:59:01;;;;;;;6.13;3.90;;;17.60;99.90;;;;;;5056568;28;20594;-86
2022/04/14 11:01:45;;;;;;;7.33;3.57;;;17.30;99.90;;;;;;5047025;28;20229;-87
2022/04/14 11:04:43;;;;;;;6.70;4.13;;;18.00;99.90;;;;;;5065695;28;20255;-86
2022/04/14 11:07:10;;;;;;;4.23;3.17;;;18.00;99.90;;;;;;5043742;28;20233;-86
2022/04/14 11:09:41;;;;;;;5.40;3.57;;;17.60;99.90;;;;;;5065577;28;20493;-86
2022/04/14 11:12:20;;;;;;;5.93;3.40;;;17.50;99.90;;;;;;5047166;28;20223;-86
2022/04/14 11:14:47;;;;;;;11.30;4.00;;;17.70;99.90;;;;;;5066174;28;20225;-89
2022/04/14 11:17:53;;;;;;;5.77;3.77;;;18.20;99.90;;;;;;5066451;28;21016;-87
2022/04/14 11:20:28;;;;;;;6.10;4.00;;;18.00;99.90;;;;;;5064299;28;20254;-88
2022/04/14 11:23:08;;;;;;;7.03;4.50;;;18.20;99.90;;;;;;5065845;28;20888;-89
2022/04/14 11:25:49;;;;;;;5.17;3.53;;;17.90;99.90;;;;;;5048029;28;20239;-88
2022/04/14 11:28:20;;;;;;;10.57;3.87;;;17.40;99.90;;;;;;5046551;28;20216;-89
2022/04/14 11:30:48;;;;;;;8.40;3.43;;;17.30;99.90;;;;;;5063837;28;20221;-89
2022/04/14 11:33:32;;;;;;;7.07;4.73;;;17.00;99.90;;;;;;5064010;28;20228;-89
2022/04/14 11:36:15;;;;;;;6.57;3.80;;;17.00;99.90;;;;;;5064451;28;20239;-89
2022/04/14 11:39:03;;;;;;;5.23;3.10;;;17.10;99.90;;;;;;5054865;28;20564;-89
2022/04/14 11:41:46;;;;;;;8.73;4.47;;;16.90;99.90;;;;;;5064682;28;20200;-87
2022/04/14 11:44:25;;;;;;;8.17;3.13;;;16.90;99.90;;;;;;5046836;28;20215;-91
2022/04/14 11:46:55;;;;;;;5.87;3.27;;;17.00;99.90;;;;;;5047611;28;20213;-87
2022/04/14 11:49:23;;;;;;;5.10;3.90;;;17.30;99.90;;;;;;5062626;28;20315;-90
2022/04/14 11:51:56;;;;;;;8.97;3.13;;;17.50;99.90;;;;;;5065238;28;20213;-89
2022/04/14 11:54:31;;;;;;;4.23;2.47;;;17.70;99.90;;;;;;5046468;28;20251;-86
2022/04/14 11:56:58;;;;;;;2.90;2.30;;;17.40;99.90;;;;;;5065153;28;20216;-88
2022/04/14 11:59:33;;;;;;;5.90;2.83;;;17.30;99.90;;;;;;5071883;28;20724;-84
2022/04/14 12:02:01;;;;;;;2.83;2.37;;;17.50;99.90;;;;;;5047215;28;20199;-85
2022/04/14 12:04:27;;;;;;;2.87;2.43;;;17.10;99.90;;;;;;5046583;28;20233;-87
2022/04/14 12:06:57;;;;;;;3.50;2.50;;;17.10;99.90;;;;;;5062401;28;20227;-86
2022/04/14 12:09:24;;;;;;;5.70;2.90;;;17.00;99.90;;;;;;5045720;28;20263;-86
2022/04/14 12:11:52;;;;;;;3.17;1.77;;;17.10;99.90;;;;;;5062840;28;20589;-85
2022/04/14 12:14:18;;;;;;;2.23;1.80;;;16.70;99.90;;;;;;5079571;28;20255;-89
2022/04/14 12:16:51;;;;;;;2.80;2.40;;;16.50;99.90;;;;;;5065299;28;20280;-86
2022/04/14 12:19:21;;;;;;;4.43;2.13;;;16.30;99.90;;;;;;5045629;28;20221;-87
2022/04/14 12:22:01;;;;;;;4.10;2.57;;;16.20;99.90;;;;;;5046361;28;20760;-88
2022/04/14 12:24:27;;;;;;;3.10;2.00;;;16.70;99.90;;;;;;5064094;28;20228;-85
2022/04/14 12:26:52;;;;;;;4.07;3.20;;;16.20;99.90;;;;;;5080101;28;20217;-85
2022/04/14 12:29:22;;;;;;;2.80;2.60;;;16.30;99.90;;;;;;5080033;28;20211;-85
2022/04/14 12:31:49;;;;;;;4.83;2.60;;;16.30;99.90;;;;;;5065304;28;20756;-85
2022/04/14 12:34:15;;;;;;;4.47;2.37;;;16.30;99.90;;;;;;5064263;28;20323;-85
2022/04/14 12:36:40;;;;;;;3.90;2.23;;;15.90;99.90;;;;;;5062291;28;20358;-87
2022/04/14 12:39:20;;;;;;;4.27;2.30;;;15.70;99.90;;;;;;5062854;28;20277;-85
2022/04/14 12:41:46;;;;;;;7.10;2.93;;;15.30;99.90;;;;;;5045641;28;20231;-87
2022/04/14 12:44:17;;;;;;;6.83;3.47;;;15.30;99.90;;;;;;5064705;28;20209;-90
2022/04/14 12:46:48;;;;;;;4.10;1.93;;;15.60;99.90;;;;;;5080868;28;20304;-91